sensor_id;sensor_type;location;lat;lon;timestamp;P1;durP1;ratioP1;P2;durP2;ratioP2
85947;SDS011;76517;53.854;27.442;2024-02-14T00:01:15;2.50;;;1.83;;
85947;SDS011;76517;53.854;27.442;2024-02-14T00:03:40;2.63;;;1.88;;
85947;SDS011;76517;53.854;27.442;2024-02-14T00:06:06;2.22;;;1.75;;
85947;SDS011;76517;53.854;27.442;2024-02-14T00:08:31;1.92;;;1.73;;
85947;SDS011;76517;53.854;27.442;2024-02-14T00:10:57;3.17;;;2.22;;
85947;SDS011;76517;53.854;27.442;2024-02-14T00:13:22;2.15;;;1.80;;
85947;SDS011;76517;53.854;27.442;2024-02-14T00:15:48;1.77;;;1.40;;
85947;SDS011;76517;53.854;27.442;2024-02-14T00:18:14;2.10;;;1.65;;
85947;SDS011;76517;53.854;27.442;2024-02-14T00:20:42;2.45;;;1.80;;
85947;SDS011;76517;53.854;27.442;2024-02-14T00:23:07;2.38;;;1.80;;
85947;SDS011;76517;53.854;27.442;2024-02-14T00:25:33;2.20;;;1.80;;
85947;SDS011;76517;53.854;27.442;2024-02-14T00:27:58;1.95;;;1.65;;
85947;SDS011;76517;53.854;27.442;2024-02-14T00:30:26;2.50;;;2.00;;
85947;SDS011;76517;53.854;27.442;2024-02-14T00:32:51;2.30;;;1.85;;
85947;SDS011;76517;53.854;27.442;2024-02-14T00:35:17;2.10;;;1.60;;
85947;SDS011;76517;53.854;27.442;2024-02-14T00:37:42;1.70;;;1.40;;
85947;SDS011;76517;53.854;27.442;2024-02-14T00:40:08;2.25;;;1.55;;
85947;SDS011;76517;53.854;27.442;2024-02-14T00:42:34;1.63;;;1.48;;
85947;SDS011;76517;53.854;27.442;2024-02-14T00:44:59;1.48;;;1.35;;
85947;SDS011;76517;53.854;27.442;2024-02-14T00:47:25;1.77;;;1.30;;
85947;SDS011;76517;53.854;27.442;2024-02-14T00:49:50;1.75;;;1.38;;
85947;SDS011;76517;53.854;27.442;2024-02-14T00:52:16;1.67;;;1.10;;
85947;SDS011;76517;53.854;27.442;2024-02-14T00:54:42;2.13;;;1.23;;
85947;SDS011;76517;53.854;27.442;2024-02-14T00:57:07;1.70;;;1.50;;
85947;SDS011;76517;53.854;27.442;2024-02-14T00:59:33;1.50;;;1.30;;
85947;SDS011;76517;53.854;27.442;2024-02-14T01:01:58;2.47;;;1.48;;
85947;SDS011;76517;53.854;27.442;2024-02-14T01:04:24;1.20;;;1.10;;
85947;SDS011;76517;53.854;27.442;2024-02-14T01:06:50;1.45;;;1.35;;
85947;SDS011;76517;53.854;27.442;2024-02-14T01:09:16;1.40;;;1.20;;
85947;SDS011;76517;53.854;27.442;2024-02-14T01:11:43;1.85;;;1.40;;
85947;SDS011;76517;53.854;27.442;2024-02-14T01:14:08;1.67;;;1.58;;
85947;SDS011;76517;53.854;27.442;2024-02-14T01:16:34;1.80;;;1.33;;
85947;SDS011;76517;53.854;27.442;2024-02-14T01:19:07;1.50;;;1.30;;
85947;SDS011;76517;53.854;27.442;2024-02-14T01:21:33;1.40;;;1.20;;
85947;SDS011;76517;53.854;27.442;2024-02-14T01:23:58;1.70;;;1.40;;
85947;SDS011;76517;53.854;27.442;2024-02-14T01:26:23;1.83;;;1.27;;
85947;SDS011;76517;53.854;27.442;2024-02-14T01:28:49;1.30;;;1.15;;
85947;SDS011;76517;53.854;27.442;2024-02-14T01:31:14;1.65;;;1.33;;
85947;SDS011;76517;53.854;27.442;2024-02-14T01:33:40;2.00;;;1.50;;
85947;SDS011;76517;53.854;27.442;2024-02-14T01:36:05;2.35;;;1.15;;
85947;SDS011;76517;53.854;27.442;2024-02-14T01:38:31;1.48;;;1.25;;
85947;SDS011;76517;53.854;27.442;2024-02-14T01:41:00;1.50;;;1.20;;
85947;SDS011;76517;53.854;27.442;2024-02-14T01:43:27;1.50;;;1.35;;
85947;SDS011;76517;53.854;27.442;2024-02-14T01:45:53;2.20;;;1.30;;
85947;SDS011;76517;53.854;27.442;2024-02-14T01:48:18;1.15;;;1.02;;
85947;SDS011;76517;53.854;27.442;2024-02-14T01:50:45;1.60;;;1.25;;
85947;SDS011;76517;53.854;27.442;2024-02-14T01:53:11;1.52;;;1.15;;
85947;SDS011;76517;53.854;27.442;2024-02-14T01:55:37;1.45;;;1.30;;
85947;SDS011;76517;53.854;27.442;2024-02-14T01:58:04;2.05;;;1.83;;
85947;SDS011;76517;53.854;27.442;2024-02-14T02:00:30;2.00;;;1.67;;
85947;SDS011;76517;53.854;27.442;2024-02-14T02:02:56;1.58;;;1.48;;
85947;SDS011;76517;53.854;27.442;2024-02-14T02:05:23;1.48;;;1.38;;
85947;SDS011;76517;53.854;27.442;2024-02-14T02:07:49;1.67;;;1.40;;
85947;SDS011;76517;53.854;27.442;2024-02-14T02:10:16;1.90;;;1.52;;
85947;SDS011;76517;53.854;27.442;2024-02-14T02:12:43;1.60;;;1.50;;
85947;SDS011;76517;53.854;27.442;2024-02-14T02:15:08;2.05;;;1.67;;
85947;SDS011;76517;53.854;27.442;2024-02-14T02:17:38;1.98;;;1.55;;
85947;SDS011;76517;53.854;27.442;2024-02-14T02:20:04;1.77;;;1.50;;
85947;SDS011;76517;53.854;27.442;2024-02-14T02:22:32;2.25;;;1.73;;
85947;SDS011;76517;53.854;27.442;2024-02-14T02:25:00;1.70;;;1.58;;
85947;SDS011;76517;53.854;27.442;2024-02-14T02:27:26;3.53;;;1.90;;
85947;SDS011;76517;53.854;27.442;2024-02-14T02:29:52;2.90;;;1.70;;
85947;SDS011;76517;53.854;27.442;2024-02-14T02:32:17;2.45;;;1.75;;
85947;SDS011;76517;53.854;27.442;2024-02-14T02:34:43;2.45;;;1.70;;
85947;SDS011;76517;53.854;27.442;2024-02-14T02:39:36;2.35;;;1.63;;
85947;SDS011;76517;53.854;27.442;2024-02-14T02:42:02;2.47;;;1.70;;
85947;SDS011;76517;53.854;27.442;2024-02-14T02:44:28;3.00;;;1.65;;
85947;SDS011;76517;53.854;27.442;2024-02-14T02:46:54;1.80;;;1.50;;
85947;SDS011;76517;53.854;27.442;2024-02-14T02:49:20;1.63;;;1.45;;
85947;SDS011;76517;53.854;27.442;2024-02-14T02:51:47;1.95;;;1.50;;
85947;SDS011;76517;53.854;27.442;2024-02-14T02:56:39;1.93;;;1.50;;
85947;SDS011;76517;53.854;27.442;2024-02-14T02:59:06;1.92;;;1.50;;
85947;SDS011;76517;53.854;27.442;2024-02-14T03:01:35;1.60;;;1.33;;
85947;SDS011;76517;53.854;27.442;2024-02-14T03:04:01;2.20;;;1.70;;
85947;SDS011;76517;53.854;27.442;2024-02-14T03:06:27;2.17;;;1.50;;
85947;SDS011;76517;53.854;27.442;2024-02-14T03:08:52;1.25;;;1.15;;
85947;SDS011;76517;53.854;27.442;2024-02-14T03:11:20;1.48;;;1.08;;
85947;SDS011;76517;53.854;27.442;2024-02-14T03:13:45;1.45;;;1.30;;
85947;SDS011;76517;53.854;27.442;2024-02-14T03:16:14;1.40;;;1.20;;
85947;SDS011;76517;53.854;27.442;2024-02-14T03:18:40;1.70;;;1.33;;
85947;SDS011;76517;53.854;27.442;2024-02-14T03:21:06;1.63;;;1.30;;
85947;SDS011;76517;53.854;27.442;2024-02-14T03:23:32;1.30;;;1.20;;
85947;SDS011;76517;53.854;27.442;2024-02-14T03:25:57;1.92;;;1.50;;
85947;SDS011;76517;53.854;27.442;2024-02-14T03:28:23;1.30;;;1.10;;
85947;SDS011;76517;53.854;27.442;2024-02-14T03:30:48;1.70;;;1.20;;
85947;SDS011;76517;53.854;27.442;2024-02-14T03:33:14;1.48;;;1.20;;
85947;SDS011;76517;53.854;27.442;2024-02-14T03:35:40;1.20;;;1.00;;
85947;SDS011;76517;53.854;27.442;2024-02-14T03:38:06;1.50;;;1.20;;
85947;SDS011;76517;53.854;27.442;2024-02-14T03:40:34;2.30;;;1.52;;
85947;SDS011;76517;53.854;27.442;2024-02-14T03:43:02;1.70;;;1.40;;
85947;SDS011;76517;53.854;27.442;2024-02-14T03:45:28;1.02;;;0.90;;
85947;SDS011;76517;53.854;27.442;2024-02-14T03:47:55;1.23;;;1.08;;
85947;SDS011;76517;53.854;27.442;2024-02-14T03:50:21;1.20;;;1.10;;
85947;SDS011;76517;53.854;27.442;2024-02-14T03:52:47;1.40;;;1.30;;
85947;SDS011;76517;53.854;27.442;2024-02-14T03:55:13;1.35;;;1.15;;
85947;SDS011;76517;53.854;27.442;2024-02-14T03:57:42;1.27;;;1.00;;
85947;SDS011;76517;53.854;27.442;2024-02-14T04:00:10;1.50;;;1.20;;
85947;SDS011;76517;53.854;27.442;2024-02-14T04:02:36;1.70;;;1.10;;
85947;SDS011;76517;53.854;27.442;2024-02-14T04:05:03;1.38;;;1.27;;
85947;SDS011;76517;53.854;27.442;2024-02-14T04:07:32;1.58;;;1.40;;
85947;SDS011;76517;53.854;27.442;2024-02-14T04:09:59;1.27;;;1.00;;
85947;SDS011;76517;53.854;27.442;2024-02-14T04:12:24;1.38;;;1.20;;
85947;SDS011;76517;53.854;27.442;2024-02-14T04:14:50;1.20;;;1.00;;
85947;SDS011;76517;53.854;27.442;2024-02-14T04:17:15;1.35;;;1.08;;
85947;SDS011;76517;53.854;27.442;2024-02-14T04:19:41;1.75;;;1.20;;
85947;SDS011;76517;53.854;27.442;2024-02-14T04:22:06;1.50;;;1.20;;
85947;SDS011;76517;53.854;27.442;2024-02-14T04:24:33;1.52;;;1.30;;
85947;SDS011;76517;53.854;27.442;2024-02-14T04:26:59;1.92;;;1.30;;
85947;SDS011;76517;53.854;27.442;2024-02-14T04:29:27;1.13;;;1.00;;
85947;SDS011;76517;53.854;27.442;2024-02-14T04:31:55;1.38;;;1.20;;
85947;SDS011;76517;53.854;27.442;2024-02-14T04:34:21;1.30;;;1.20;;
85947;SDS011;76517;53.854;27.442;2024-02-14T04:36:46;1.73;;;1.27;;
85947;SDS011;76517;53.854;27.442;2024-02-14T04:39:12;1.35;;;1.15;;
85947;SDS011;76517;53.854;27.442;2024-02-14T04:41:37;1.33;;;1.23;;
85947;SDS011;76517;53.854;27.442;2024-02-14T04:44:06;1.58;;;1.02;;
85947;SDS011;76517;53.854;27.442;2024-02-14T04:46:32;1.30;;;1.20;;
85947;SDS011;76517;53.854;27.442;2024-02-14T04:49:00;1.30;;;1.10;;
85947;SDS011;76517;53.854;27.442;2024-02-14T04:51:28;1.52;;;1.00;;
85947;SDS011;76517;53.854;27.442;2024-02-14T04:53:54;1.60;;;1.20;;
85947;SDS011;76517;53.854;27.442;2024-02-14T04:56:23;1.33;;;1.10;;
85947;SDS011;76517;53.854;27.442;2024-02-14T04:58:49;1.80;;;1.50;;
85947;SDS011;76517;53.854;27.442;2024-02-14T05:01:15;1.80;;;1.30;;
85947;SDS011;76517;53.854;27.442;2024-02-14T05:03:40;1.20;;;1.10;;
85947;SDS011;76517;53.854;27.442;2024-02-14T05:06:07;1.48;;;1.30;;
85947;SDS011;76517;53.854;27.442;2024-02-14T05:08:33;1.67;;;1.48;;
85947;SDS011;76517;53.854;27.442;2024-02-14T05:10:58;2.15;;;1.35;;
85947;SDS011;76517;53.854;27.442;2024-02-14T05:13:24;1.30;;;1.20;;
85947;SDS011;76517;53.854;27.442;2024-02-14T05:15:51;1.17;;;1.00;;
85947;SDS011;76517;53.854;27.442;2024-02-14T05:18:18;1.58;;;1.00;;
85947;SDS011;76517;53.854;27.442;2024-02-14T05:20:44;1.15;;;0.98;;
85947;SDS011;76517;53.854;27.442;2024-02-14T05:23:09;1.25;;;1.00;;
85947;SDS011;76517;53.854;27.442;2024-02-14T05:25:36;1.48;;;1.00;;
85947;SDS011;76517;53.854;27.442;2024-02-14T05:28:01;0.80;;;0.80;;
85947;SDS011;76517;53.854;27.442;2024-02-14T05:30:27;1.10;;;0.90;;
85947;SDS011;76517;53.854;27.442;2024-02-14T05:32:52;1.02;;;0.93;;
85947;SDS011;76517;53.854;27.442;2024-02-14T05:35:18;1.30;;;1.20;;
85947;SDS011;76517;53.854;27.442;2024-02-14T05:37:43;1.30;;;1.20;;
85947;SDS011;76517;53.854;27.442;2024-02-14T05:40:09;1.20;;;1.05;;
85947;SDS011;76517;53.854;27.442;2024-02-14T05:42:34;1.52;;;1.10;;
85947;SDS011;76517;53.854;27.442;2024-02-14T05:45:00;1.20;;;1.10;;
85947;SDS011;76517;53.854;27.442;2024-02-14T05:47:26;1.30;;;1.13;;
85947;SDS011;76517;53.854;27.442;2024-02-14T05:49:52;1.10;;;1.00;;
85947;SDS011;76517;53.854;27.442;2024-02-14T05:52:17;1.30;;;1.05;;
85947;SDS011;76517;53.854;27.442;2024-02-14T05:54:43;1.17;;;0.98;;
85947;SDS011;76517;53.854;27.442;2024-02-14T05:57:09;1.08;;;0.98;;
85947;SDS011;76517;53.854;27.442;2024-02-14T05:59:34;1.50;;;0.90;;
85947;SDS011;76517;53.854;27.442;2024-02-14T06:02:00;1.05;;;0.95;;
85947;SDS011;76517;53.854;27.442;2024-02-14T06:04:28;0.82;;;0.77;;
85947;SDS011;76517;53.854;27.442;2024-02-14T06:06:53;2.38;;;1.02;;
85947;SDS011;76517;53.854;27.442;2024-02-14T06:09:19;1.13;;;0.80;;
85947;SDS011;76517;53.854;27.442;2024-02-14T06:11:44;1.42;;;1.00;;
85947;SDS011;76517;53.854;27.442;2024-02-14T06:14:09;0.82;;;0.80;;
85947;SDS011;76517;53.854;27.442;2024-02-14T06:16:35;1.20;;;0.90;;
85947;SDS011;76517;53.854;27.442;2024-02-14T06:19:01;1.38;;;0.98;;
85947;SDS011;76517;53.854;27.442;2024-02-14T06:21:29;1.02;;;0.80;;
85947;SDS011;76517;53.854;27.442;2024-02-14T06:23:54;1.48;;;0.77;;
85947;SDS011;76517;53.854;27.442;2024-02-14T06:26:20;1.15;;;0.90;;
85947;SDS011;76517;53.854;27.442;2024-02-14T06:28:46;1.80;;;1.00;;
85947;SDS011;76517;53.854;27.442;2024-02-14T06:31:11;1.00;;;0.85;;
85947;SDS011;76517;53.854;27.442;2024-02-14T06:33:37;0.93;;;0.80;;
85947;SDS011;76517;53.854;27.442;2024-02-14T06:36:03;1.45;;;1.00;;
85947;SDS011;76517;53.854;27.442;2024-02-14T06:38:31;1.45;;;0.90;;
85947;SDS011;76517;53.854;27.442;2024-02-14T06:40:56;1.20;;;0.90;;
85947;SDS011;76517;53.854;27.442;2024-02-14T06:43:22;1.40;;;0.82;;
85947;SDS011;76517;53.854;27.442;2024-02-14T06:45:47;1.30;;;1.08;;
85947;SDS011;76517;53.854;27.442;2024-02-14T06:48:13;1.15;;;1.02;;
85947;SDS011;76517;53.854;27.442;2024-02-14T06:50:39;1.30;;;0.80;;
85947;SDS011;76517;53.854;27.442;2024-02-14T06:53:05;1.50;;;0.80;;
85947;SDS011;76517;53.854;27.442;2024-02-14T06:55:31;1.92;;;0.90;;
85947;SDS011;76517;53.854;27.442;2024-02-14T06:57:57;0.90;;;0.80;;
85947;SDS011;76517;53.854;27.442;2024-02-14T07:00:23;0.82;;;0.70;;
85947;SDS011;76517;53.854;27.442;2024-02-14T07:02:49;1.00;;;0.90;;
85947;SDS011;76517;53.854;27.442;2024-02-14T07:05:14;1.40;;;0.93;;
85947;SDS011;76517;53.854;27.442;2024-02-14T07:07:40;0.93;;;0.82;;
85947;SDS011;76517;53.854;27.442;2024-02-14T07:10:06;0.98;;;0.80;;
85947;SDS011;76517;53.854;27.442;2024-02-14T07:12:32;1.20;;;0.80;;
85947;SDS011;76517;53.854;27.442;2024-02-14T07:14:58;0.90;;;0.85;;
85947;SDS011;76517;53.854;27.442;2024-02-14T07:17:23;1.15;;;0.77;;
85947;SDS011;76517;53.854;27.442;2024-02-14T07:19:49;1.25;;;0.90;;
85947;SDS011;76517;53.854;27.442;2024-02-14T07:22:18;0.80;;;0.70;;
85947;SDS011;76517;53.854;27.442;2024-02-14T07:24:46;0.80;;;0.80;;
85947;SDS011;76517;53.854;27.442;2024-02-14T07:27:12;0.93;;;0.80;;
85947;SDS011;76517;53.854;27.442;2024-02-14T07:29:39;1.88;;;0.70;;
85947;SDS011;76517;53.854;27.442;2024-02-14T07:32:05;1.80;;;0.80;;
85947;SDS011;76517;53.854;27.442;2024-02-14T07:34:31;1.52;;;0.88;;
85947;SDS011;76517;53.854;27.442;2024-02-14T07:36:57;1.27;;;0.90;;
85947;SDS011;76517;53.854;27.442;2024-02-14T07:39:22;1.17;;;0.90;;
85947;SDS011;76517;53.854;27.442;2024-02-14T07:41:48;0.85;;;0.80;;
85947;SDS011;76517;53.854;27.442;2024-02-14T07:44:14;1.27;;;1.13;;
85947;SDS011;76517;53.854;27.442;2024-02-14T07:46:40;1.52;;;1.10;;
85947;SDS011;76517;53.854;27.442;2024-02-14T07:49:05;1.40;;;1.20;;
85947;SDS011;76517;53.854;27.442;2024-02-14T07:51:31;0.90;;;0.80;;
85947;SDS011;76517;53.854;27.442;2024-02-14T07:54:02;1.25;;;1.13;;
85947;SDS011;76517;53.854;27.442;2024-02-14T07:56:28;1.83;;;1.20;;
85947;SDS011;76517;53.854;27.442;2024-02-14T07:58:54;2.13;;;1.00;;
85947;SDS011;76517;53.854;27.442;2024-02-14T08:01:19;1.25;;;1.15;;
85947;SDS011;76517;53.854;27.442;2024-02-14T08:03:45;1.05;;;0.90;;
85947;SDS011;76517;53.854;27.442;2024-02-14T08:06:11;0.95;;;0.93;;
85947;SDS011;76517;53.854;27.442;2024-02-14T08:08:37;1.73;;;1.15;;
85947;SDS011;76517;53.854;27.442;2024-02-14T08:11:02;1.38;;;0.98;;
85947;SDS011;76517;53.854;27.442;2024-02-14T08:13:28;1.15;;;0.90;;
85947;SDS011;76517;53.854;27.442;2024-02-14T08:15:54;1.00;;;0.90;;
85947;SDS011;76517;53.854;27.442;2024-02-14T08:18:20;1.05;;;0.80;;
85947;SDS011;76517;53.854;27.442;2024-02-14T08:20:48;0.90;;;0.80;;
85947;SDS011;76517;53.854;27.442;2024-02-14T08:23:13;1.10;;;1.00;;
85947;SDS011;76517;53.854;27.442;2024-02-14T08:25:39;1.00;;;0.80;;
85947;SDS011;76517;53.854;27.442;2024-02-14T08:28:06;1.55;;;1.30;;
85947;SDS011;76517;53.854;27.442;2024-02-14T08:30:32;1.63;;;1.02;;
85947;SDS011;76517;53.854;27.442;2024-02-14T08:32:58;1.52;;;1.10;;
85947;SDS011;76517;53.854;27.442;2024-02-14T08:35:24;1.38;;;1.20;;
85947;SDS011;76517;53.854;27.442;2024-02-14T08:37:49;0.80;;;0.80;;
85947;SDS011;76517;53.854;27.442;2024-02-14T08:40:15;0.90;;;0.70;;
85947;SDS011;76517;53.854;27.442;2024-02-14T08:42:40;1.83;;;1.13;;
85947;SDS011;76517;53.854;27.442;2024-02-14T08:45:06;1.48;;;1.00;;
85947;SDS011;76517;53.854;27.442;2024-02-14T08:47:32;1.30;;;0.80;;
85947;SDS011;76517;53.854;27.442;2024-02-14T08:49:57;1.40;;;1.00;;
85947;SDS011;76517;53.854;27.442;2024-02-14T08:52:22;0.95;;;0.85;;
85947;SDS011;76517;53.854;27.442;2024-02-14T08:54:48;1.05;;;0.80;;
85947;SDS011;76517;53.854;27.442;2024-02-14T08:57:13;1.83;;;1.00;;
85947;SDS011;76517;53.854;27.442;2024-02-14T08:59:39;1.17;;;1.00;;
85947;SDS011;76517;53.854;27.442;2024-02-14T09:02:05;1.92;;;1.30;;
85947;SDS011;76517;53.854;27.442;2024-02-14T09:04:31;1.75;;;1.42;;
85947;SDS011;76517;53.854;27.442;2024-02-14T09:06:56;1.08;;;0.80;;
85947;SDS011;76517;53.854;27.442;2024-02-14T09:09:21;1.80;;;1.25;;
85947;SDS011;76517;53.854;27.442;2024-02-14T09:11:48;1.42;;;1.23;;
85947;SDS011;76517;53.854;27.442;2024-02-14T09:14:13;2.10;;;1.00;;
85947;SDS011;76517;53.854;27.442;2024-02-14T09:16:39;1.23;;;1.00;;
85947;SDS011;76517;53.854;27.442;2024-02-14T09:19:04;1.23;;;1.00;;
85947;SDS011;76517;53.854;27.442;2024-02-14T09:21:32;1.50;;;1.10;;
85947;SDS011;76517;53.854;27.442;2024-02-14T09:24:00;1.20;;;1.10;;
85947;SDS011;76517;53.854;27.442;2024-02-14T09:26:26;1.30;;;0.90;;
85947;SDS011;76517;53.854;27.442;2024-02-14T09:28:51;1.30;;;1.10;;
85947;SDS011;76517;53.854;27.442;2024-02-14T09:31:18;1.38;;;1.00;;
85947;SDS011;76517;53.854;27.442;2024-02-14T09:33:49;1.20;;;1.10;;
85947;SDS011;76517;53.854;27.442;2024-02-14T09:36:15;1.45;;;1.10;;
85947;SDS011;76517;53.854;27.442;2024-02-14T09:38:41;1.25;;;1.00;;
85947;SDS011;76517;53.854;27.442;2024-02-14T09:43:40;1.77;;;1.13;;
85947;SDS011;76517;53.854;27.442;2024-02-14T09:46:09;1.58;;;1.10;;
85947;SDS011;76517;53.854;27.442;2024-02-14T09:48:39;1.15;;;0.80;;
85947;SDS011;76517;53.854;27.442;2024-02-14T09:51:07;1.25;;;1.02;;
85947;SDS011;76517;53.854;27.442;2024-02-14T09:53:34;2.08;;;0.98;;
85947;SDS011;76517;53.854;27.442;2024-02-14T09:55:59;1.17;;;0.90;;
85947;SDS011;76517;53.854;27.442;2024-02-14T09:58:27;1.15;;;0.93;;
85947;SDS011;76517;53.854;27.442;2024-02-14T10:00:54;1.08;;;0.90;;
85947;SDS011;76517;53.854;27.442;2024-02-14T10:03:19;1.10;;;1.00;;
85947;SDS011;76517;53.854;27.442;2024-02-14T10:05:46;1.30;;;0.88;;
85947;SDS011;76517;53.854;27.442;2024-02-14T10:08:12;1.10;;;0.82;;
85947;SDS011;76517;53.854;27.442;2024-02-14T10:10:39;1.08;;;0.93;;
85947;SDS011;76517;53.854;27.442;2024-02-14T10:13:05;1.17;;;0.88;;
85947;SDS011;76517;53.854;27.442;2024-02-14T10:15:32;0.82;;;0.73;;
85947;SDS011;76517;53.854;27.442;2024-02-14T10:18:07;1.17;;;0.90;;
85947;SDS011;76517;53.854;27.442;2024-02-14T10:20:34;1.10;;;1.00;;
85947;SDS011;76517;53.854;27.442;2024-02-14T10:23:05;1.30;;;0.95;;
85947;SDS011;76517;53.854;27.442;2024-02-14T10:25:36;0.88;;;0.80;;
85947;SDS011;76517;53.854;27.442;2024-02-14T10:28:06;0.93;;;0.82;;
85947;SDS011;76517;53.854;27.442;2024-02-14T10:30:35;1.00;;;0.90;;
85947;SDS011;76517;53.854;27.442;2024-02-14T10:33:03;1.25;;;1.10;;
85947;SDS011;76517;53.854;27.442;2024-02-14T10:35:29;1.05;;;0.90;;
85947;SDS011;76517;53.854;27.442;2024-02-14T10:37:57;1.10;;;1.00;;
85947;SDS011;76517;53.854;27.442;2024-02-14T10:40:27;1.13;;;0.93;;
85947;SDS011;76517;53.854;27.442;2024-02-14T10:42:53;0.95;;;0.80;;
85947;SDS011;76517;53.854;27.442;2024-02-14T10:45:19;1.27;;;0.80;;
85947;SDS011;76517;53.854;27.442;2024-02-14T10:47:45;1.70;;;1.00;;
85947;SDS011;76517;53.854;27.442;2024-02-14T10:50:14;1.30;;;1.10;;
85947;SDS011;76517;53.854;27.442;2024-02-14T10:52:40;0.93;;;0.80;;
85947;SDS011;76517;53.854;27.442;2024-02-14T10:55:06;0.80;;;0.80;;
85947;SDS011;76517;53.854;27.442;2024-02-14T10:57:34;0.77;;;0.70;;
85947;SDS011;76517;53.854;27.442;2024-02-14T11:00:01;1.00;;;0.80;;
85947;SDS011;76517;53.854;27.442;2024-02-14T11:02:32;0.55;;;0.55;;
85947;SDS011;76517;53.854;27.442;2024-02-14T11:04:58;0.80;;;0.70;;
85947;SDS011;76517;53.854;27.442;2024-02-14T11:07:27;1.02;;;0.73;;
85947;SDS011;76517;53.854;27.442;2024-02-14T11:10:00;1.52;;;0.90;;
85947;SDS011;76517;53.854;27.442;2024-02-14T11:12:32;0.90;;;0.80;;
85947;SDS011;76517;53.854;27.442;2024-02-14T11:14:59;1.15;;;0.85;;
85947;SDS011;76517;53.854;27.442;2024-02-14T11:17:26;0.70;;;0.68;;
85947;SDS011;76517;53.854;27.442;2024-02-14T11:19:52;0.80;;;0.80;;
85947;SDS011;76517;53.854;27.442;2024-02-14T11:22:19;0.85;;;0.75;;
85947;SDS011;76517;53.854;27.442;2024-02-14T11:24:45;1.55;;;0.80;;
85947;SDS011;76517;53.854;27.442;2024-02-14T11:27:12;0.80;;;0.70;;
85947;SDS011;76517;53.854;27.442;2024-02-14T11:29:52;0.98;;;0.80;;
85947;SDS011;76517;53.854;27.442;2024-02-14T11:32:18;0.70;;;0.65;;
85947;SDS011;76517;53.854;27.442;2024-02-14T11:34:53;0.82;;;0.70;;
85947;SDS011;76517;53.854;27.442;2024-02-14T11:37:30;1.85;;;0.60;;
85947;SDS011;76517;53.854;27.442;2024-02-14T11:39:56;0.70;;;0.63;;
85947;SDS011;76517;53.854;27.442;2024-02-14T11:42:23;0.70;;;0.70;;
85947;SDS011;76517;53.854;27.442;2024-02-14T11:44:48;0.93;;;0.73;;
85947;SDS011;76517;53.854;27.442;2024-02-14T11:47:15;0.75;;;0.60;;
85947;SDS011;76517;53.854;27.442;2024-02-14T11:49:45;1.00;;;0.70;;
85947;SDS011;76517;53.854;27.442;2024-02-14T11:52:11;1.10;;;0.70;;
85947;SDS011;76517;53.854;27.442;2024-02-14T11:54:37;1.02;;;0.85;;
85947;SDS011;76517;53.854;27.442;2024-02-14T11:57:03;0.90;;;0.80;;
85947;SDS011;76517;53.854;27.442;2024-02-14T11:59:29;1.25;;;0.80;;
85947;SDS011;76517;53.854;27.442;2024-02-14T12:01:54;1.38;;;0.90;;
85947;SDS011;76517;53.854;27.442;2024-02-14T12:04:23;0.80;;;0.70;;
85947;SDS011;76517;53.854;27.442;2024-02-14T12:06:49;1.08;;;0.90;;
85947;SDS011;76517;53.854;27.442;2024-02-14T12:09:15;1.00;;;0.80;;
85947;SDS011;76517;53.854;27.442;2024-02-14T12:11:41;1.23;;;1.00;;
85947;SDS011;76517;53.854;27.442;2024-02-14T12:14:09;0.80;;;0.70;;
85947;SDS011;76517;53.854;27.442;2024-02-14T12:16:35;1.15;;;1.00;;
85947;SDS011;76517;53.854;27.442;2024-02-14T12:19:06;0.93;;;0.70;;
85947;SDS011;76517;53.854;27.442;2024-02-14T12:21:40;1.25;;;0.85;;
85947;SDS011;76517;53.854;27.442;2024-02-14T12:24:07;1.08;;;0.90;;
85947;SDS011;76517;53.854;27.442;2024-02-14T12:26:34;0.95;;;0.80;;
85947;SDS011;76517;53.854;27.442;2024-02-14T12:29:02;1.20;;;0.90;;
85947;SDS011;76517;53.854;27.442;2024-02-14T12:31:28;1.73;;;0.98;;
85947;SDS011;76517;53.854;27.442;2024-02-14T12:33:56;1.23;;;0.77;;
85947;SDS011;76517;53.854;27.442;2024-02-14T12:36:24;0.80;;;0.80;;
85947;SDS011;76517;53.854;27.442;2024-02-14T12:38:50;1.10;;;0.90;;
85947;SDS011;76517;53.854;27.442;2024-02-14T12:41:18;1.05;;;0.80;;
85947;SDS011;76517;53.854;27.442;2024-02-14T12:43:43;1.13;;;0.77;;
85947;SDS011;76517;53.854;27.442;2024-02-14T12:46:09;1.30;;;0.75;;
85947;SDS011;76517;53.854;27.442;2024-02-14T12:48:35;1.58;;;1.08;;
85947;SDS011;76517;53.854;27.442;2024-02-14T12:51:00;1.23;;;0.95;;
85947;SDS011;76517;53.854;27.442;2024-02-14T12:53:26;1.02;;;0.75;;
85947;SDS011;76517;53.854;27.442;2024-02-14T12:55:51;1.25;;;0.82;;
85947;SDS011;76517;53.854;27.442;2024-02-14T12:58:18;0.82;;;0.70;;
85947;SDS011;76517;53.854;27.442;2024-02-14T13:00:43;0.95;;;0.85;;
85947;SDS011;76517;53.854;27.442;2024-02-14T13:03:10;0.85;;;0.70;;
85947;SDS011;76517;53.854;27.442;2024-02-14T13:05:36;1.25;;;0.90;;
85947;SDS011;76517;53.854;27.442;2024-02-14T13:08:02;0.98;;;0.80;;
85947;SDS011;76517;53.854;27.442;2024-02-14T13:10:28;1.00;;;0.80;;
85947;SDS011;76517;53.854;27.442;2024-02-14T13:12:56;1.08;;;0.85;;
85947;SDS011;76517;53.854;27.442;2024-02-14T13:15:22;1.15;;;0.80;;
85947;SDS011;76517;53.854;27.442;2024-02-14T13:17:47;0.75;;;0.70;;
85947;SDS011;76517;53.854;27.442;2024-02-14T13:20:13;1.00;;;0.73;;
85947;SDS011;76517;53.854;27.442;2024-02-14T13:22:40;0.90;;;0.85;;
85947;SDS011;76517;53.854;27.442;2024-02-14T13:25:07;1.77;;;0.85;;
85947;SDS011;76517;53.854;27.442;2024-02-14T13:27:34;1.00;;;0.70;;
85947;SDS011;76517;53.854;27.442;2024-02-14T13:30:00;1.20;;;0.80;;
85947;SDS011;76517;53.854;27.442;2024-02-14T13:32:29;0.93;;;0.80;;
85947;SDS011;76517;53.854;27.442;2024-02-14T13:34:55;1.00;;;0.90;;
85947;SDS011;76517;53.854;27.442;2024-02-14T13:37:21;1.35;;;0.90;;
85947;SDS011;76517;53.854;27.442;2024-02-14T13:39:47;1.00;;;0.80;;
85947;SDS011;76517;53.854;27.442;2024-02-14T13:42:12;1.30;;;0.93;;
85947;SDS011;76517;53.854;27.442;2024-02-14T13:44:38;0.93;;;0.82;;
85947;SDS011;76517;53.854;27.442;2024-02-14T13:47:06;1.35;;;0.73;;
85947;SDS011;76517;53.854;27.442;2024-02-14T13:49:32;1.15;;;0.93;;
85947;SDS011;76517;53.854;27.442;2024-02-14T13:51:57;1.42;;;0.75;;
85947;SDS011;76517;53.854;27.442;2024-02-14T13:54:23;0.98;;;0.80;;
85947;SDS011;76517;53.854;27.442;2024-02-14T13:56:49;0.70;;;0.63;;
85947;SDS011;76517;53.854;27.442;2024-02-14T13:59:15;1.63;;;0.60;;
85947;SDS011;76517;53.854;27.442;2024-02-14T14:01:41;0.60;;;0.50;;
85947;SDS011;76517;53.854;27.442;2024-02-14T14:04:07;2.08;;;0.98;;
85947;SDS011;76517;53.854;27.442;2024-02-14T14:06:32;1.05;;;0.73;;
85947;SDS011;76517;53.854;27.442;2024-02-14T14:08:58;1.17;;;0.70;;
85947;SDS011;76517;53.854;27.442;2024-02-14T14:11:24;1.65;;;0.75;;
85947;SDS011;76517;53.854;27.442;2024-02-14T14:13:50;1.00;;;0.90;;
85947;SDS011;76517;53.854;27.442;2024-02-14T14:16:15;0.73;;;0.70;;
85947;SDS011;76517;53.854;27.442;2024-02-14T14:18:42;0.98;;;0.85;;
85947;SDS011;76517;53.854;27.442;2024-02-14T14:21:08;0.98;;;0.80;;
85947;SDS011;76517;53.854;27.442;2024-02-14T14:23:33;1.02;;;0.80;;
85947;SDS011;76517;53.854;27.442;2024-02-14T14:25:59;0.90;;;0.60;;
85947;SDS011;76517;53.854;27.442;2024-02-14T14:28:25;1.30;;;1.20;;
85947;SDS011;76517;53.854;27.442;2024-02-14T14:30:51;0.85;;;0.70;;
85947;SDS011;76517;53.854;27.442;2024-02-14T14:33:19;0.88;;;0.73;;
85947;SDS011;76517;53.854;27.442;2024-02-14T14:35:44;0.82;;;0.70;;